createdAt,value
2023-05-05T00:01:24.257Z,101250.88
2023-05-05T00:03:50.825Z,101247.31
2023-05-05T00:06:17.405Z,101246.78
2023-05-05T00:08:44.206Z,101239.97
2023-05-05T00:11:10.673Z,101237.22
2023-05-05T00:13:38.619Z,101241.56
2023-05-05T00:16:05.919Z,101233.97
2023-05-05T00:18:33.763Z,101247.53
2023-05-05T00:21:00.171Z,101244.81
2023-05-05T00:23:27.987Z,101238.88
2023-05-05T00:25:54.753Z,101240.97
2023-05-05T00:28:21.212Z,101232.25
2023-05-05T00:30:47.818Z,101233.28
2023-05-05T00:33:14.522Z,101230.25
2023-05-05T00:35:41.066Z,101226.66
2023-05-05T00:38:07.551Z,101224.13
2023-05-05T00:40:33.983Z,101220.03
2023-05-05T00:43:00.451Z,101219.75
2023-05-05T00:45:27.508Z,101219.38
2023-05-05T00:47:57.351Z,101208.19
2023-05-05T00:50:29.265Z,101217.16
2023-05-05T00:53:02.295Z,101216.09
2023-05-05T00:55:30.124Z,101215.47
2023-05-05T00:57:57.988Z,101216.03
2023-05-05T01:00:25.018Z,101205.38
2023-05-05T01:02:52.536Z,101210.28
2023-05-05T01:05:21.668Z,101196.13
2023-05-05T01:08:02.886Z,101199.47
2023-05-05T01:10:45.293Z,101196.16
2023-05-05T01:13:42.670Z,101194.22
2023-05-05T01:16:18.261Z,101196.66
2023-05-05T01:18:53.830Z,101190.16
2023-05-05T01:21:33.685Z,101195.88
2023-05-05T01:24:18.864Z,101188.53
2023-05-05T01:27:45.332Z,101192.56
2023-05-05T01:30:39.845Z,101185.00
2023-05-05T01:33:09.987Z,101176.50
2023-05-05T01:35:42.010Z,101176.44
2023-05-05T01:38:14.993Z,101176.50
2023-05-05T01:40:46.947Z,101174.56
2023-05-05T01:43:18.215Z,101168.50
2023-05-05T01:45:48.585Z,101175.66
2023-05-05T01:48:18.878Z,101169.91
2023-05-05T01:50:48.191Z,101176.16
2023-05-05T01:53:17.607Z,101176.16
2023-05-05T01:55:46.866Z,101173.75
2023-05-05T01:58:16.231Z,101168.00
2023-05-05T02:00:44.240Z,101166.63
2023-05-05T02:03:13.807Z,101163.34
2023-05-05T02:05:42.314Z,101169.06
2023-05-05T02:08:11.008Z,101173.13
2023-05-05T02:10:40.836Z,101167.94
2023-05-05T02:13:12.437Z,101164.38
2023-05-05T02:15:40.486Z,101166.25
2023-05-05T02:18:07.587Z,101168.16
2023-05-05T02:20:37.275Z,101166.00
2023-05-05T02:23:05.739Z,101159.78
2023-05-05T02:25:38.252Z,101159.63
2023-05-05T02:28:11.147Z,101158.88
2023-05-05T02:30:39.021Z,101159.38
2023-05-05T02:33:11.238Z,101154.75
2023-05-05T02:35:42.284Z,101164.56
2023-05-05T02:38:17.622Z,101156.66
2023-05-05T02:40:49.660Z,101155.53
2023-05-05T02:43:19.549Z,101158.53
2023-05-05T02:45:47.008Z,101155.06
2023-05-05T02:48:14.930Z,101158.72
2023-05-05T02:50:42.561Z,101154.97
2023-05-05T02:53:26.796Z,101155.41
2023-05-05T02:56:01.678Z,101162.34
2023-05-05T02:58:46.337Z,101158.84
2023-05-05T03:01:33.222Z,101153.72
2023-05-05T03:04:06.086Z,101155.41
2023-05-05T03:06:46.311Z,101148.78
2023-05-05T03:09:26.333Z,101139.59
2023-05-05T03:12:09.723Z,101147.13
2023-05-05T03:14:48.928Z,101152.56
2023-05-05T03:17:18.555Z,101152.56
2023-05-05T03:19:46.666Z,101142.75
2023-05-05T03:22:13.605Z,101136.78
2023-05-05T03:24:50.007Z,101143.00
2023-05-05T03:27:17.522Z,101145.22
2023-05-05T03:29:44.199Z,101143.91
2023-05-05T03:32:14.037Z,101139.69
2023-05-05T03:34:41.617Z,101139.13
2023-05-05T03:37:08.634Z,101140.75
2023-05-05T03:39:36.599Z,101143.47
2023-05-05T03:42:03.525Z,101131.41
2023-05-05T03:44:32.406Z,101133.22
2023-05-05T03:46:58.959Z,101130.13
2023-05-05T03:49:26.722Z,101138.47
2023-05-05T03:51:53.649Z,101139.34
2023-05-05T03:54:20.117Z,101137.50
2023-05-05T03:56:46.655Z,101139.66
2023-05-05T03:59:13.165Z,101134.97
2023-05-05T04:01:39.564Z,101138.31
2023-05-05T04:04:06.107Z,101139.13
2023-05-05T04:06:32.613Z,101126.69
2023-05-05T04:08:59.120Z,101125.31
2023-05-05T04:11:26.206Z,101136.19
2023-05-05T04:13:53.638Z,101132.13
2023-05-05T04:16:20.235Z,101126.63
2023-05-05T04:18:47.546Z,101113.38
2023-05-05T04:21:14.111Z,101126.84
2023-05-05T04:23:40.917Z,101118.50
2023-05-05T04:26:07.605Z,101128.91
2023-05-05T04:28:34.210Z,101126.38
2023-05-05T04:31:01.339Z,101121.97
2023-05-05T04:33:30.672Z,101134.78
2023-05-05T04:35:57.176Z,101137.53
2023-05-05T04:38:24.015Z,101132.72
2023-05-05T04:40:50.949Z,101139.53
2023-05-05T04:43:17.490Z,101134.41
2023-05-05T04:45:54.834Z,101126.00
2023-05-05T04:48:24.198Z,101112.56
2023-05-05T04:50:51.541Z,101123.16
2023-05-05T04:53:18.194Z,101121.16
2023-05-05T04:55:44.920Z,101125.75
2023-05-05T04:58:11.417Z,101117.13
2023-05-05T05:00:38.413Z,101128.84
2023-05-05T05:03:05.009Z,101130.03
2023-05-05T05:05:31.490Z,101134.97
2023-05-05T05:07:58.112Z,101136.88
2023-05-05T05:10:24.514Z,101141.78
2023-05-05T05:12:51.268Z,101137.13
2023-05-05T05:15:17.694Z,101132.75
2023-05-05T05:17:44.650Z,101142.91
2023-05-05T05:20:12.397Z,101144.59
2023-05-05T05:22:39.278Z,101151.97
2023-05-05T05:25:10.349Z,101151.78
2023-05-05T05:27:36.966Z,101159.63
2023-05-05T05:30:03.643Z,101159.94
2023-05-05T05:32:31.952Z,101159.66
2023-05-05T05:34:58.859Z,101153.75
2023-05-05T05:37:28.904Z,101135.78
2023-05-05T05:39:56.981Z,101146.13
2023-05-05T05:42:25.921Z,101149.38
2023-05-05T05:44:52.891Z,101147.47
2023-05-05T05:47:19.472Z,101140.19
2023-05-05T05:49:46.009Z,101134.50
2023-05-05T05:52:12.616Z,101133.19
2023-05-05T05:54:39.567Z,101132.44
2023-05-05T05:57:07.139Z,101142.53
2023-05-05T05:59:33.707Z,101149.59
2023-05-05T06:02:00.378Z,101141.97
2023-05-05T06:04:27.183Z,101133.81
2023-05-05T06:06:54.584Z,101131.91
2023-05-05T06:09:21.158Z,101135.44
2023-05-05T06:11:47.594Z,101137.63
2023-05-05T06:14:14.133Z,101145.28
2023-05-05T06:16:40.684Z,101144.47
2023-05-05T06:19:11.157Z,101159.16
2023-05-05T06:21:38.264Z,101146.09
2023-05-05T06:24:04.984Z,101145.00
2023-05-05T06:26:32.387Z,101151.53
2023-05-05T06:28:58.797Z,101146.66
2023-05-05T06:31:25.631Z,101146.91
2023-05-05T06:33:52.099Z,101146.38
2023-05-05T06:36:18.609Z,101144.47
2023-05-05T06:38:45.338Z,101154.53
2023-05-05T06:41:11.900Z,101155.88
2023-05-05T06:43:38.574Z,101158.59
2023-05-05T06:46:10.023Z,101156.44
2023-05-05T06:48:36.781Z,101155.63
2023-05-05T06:51:04.835Z,101148.78
2023-05-05T06:53:31.217Z,101154.50
2023-05-05T06:55:58.009Z,101158.00
2023-05-05T06:58:24.409Z,101159.06
2023-05-05T07:00:50.843Z,101161.75
2023-05-05T07:03:17.367Z,101145.41
2023-05-05T07:05:44.095Z,101135.31
2023-05-05T07:08:11.443Z,101134.53
2023-05-05T07:10:38.151Z,101123.84
2023-05-05T07:13:04.960Z,101120.25
2023-05-05T07:15:31.502Z,101126.94
2023-05-05T07:17:58.512Z,101134.47
2023-05-05T07:20:25.350Z,101131.13
2023-05-05T07:22:51.815Z,101132.22
2023-05-05T07:25:18.399Z,101134.63
2023-05-05T07:27:44.910Z,101156.22
2023-05-05T07:30:15.389Z,101167.34
2023-05-05T07:32:44.055Z,101176.63
2023-05-05T07:35:10.762Z,101180.16
2023-05-05T07:37:37.175Z,101179.03
2023-05-05T07:40:04.152Z,101174.63
2023-05-05T07:42:30.577Z,101184.84
2023-05-05T07:44:57.017Z,101184.53
2023-05-05T07:47:23.483Z,101198.13
2023-05-05T07:49:49.890Z,101211.50
2023-05-05T07:52:16.413Z,101209.28
2023-05-05T07:54:42.849Z,101223.84
2023-05-05T07:57:09.267Z,101241.91
2023-05-05T07:59:35.925Z,101258.41
2023-05-05T08:02:02.341Z,101251.16
2023-05-05T08:04:28.810Z,101243.03
2023-05-05T08:06:55.239Z,101232.13
2023-05-05T08:09:21.721Z,101222.00
2023-05-05T08:11:48.274Z,101225.75
2023-05-05T08:14:15.349Z,101220.78
2023-05-05T08:16:41.809Z,101219.91
2023-05-05T08:19:21.065Z,101213.25
2023-05-05T08:21:51.613Z,101215.91
2023-05-05T08:24:18.066Z,101213.19
2023-05-05T08:26:44.663Z,101210.19
2023-05-05T08:29:11.549Z,101216.75
2023-05-05T08:31:38.054Z,101194.22
2023-05-05T08:34:06.012Z,101199.81
2023-05-05T08:36:33.034Z,101209.69
2023-05-05T08:38:59.810Z,101225.75
2023-05-05T08:41:26.704Z,101216.25
2023-05-05T08:43:53.223Z,101203.72
2023-05-05T08:46:19.929Z,101193.00
2023-05-05T08:48:48.408Z,101190.75
2023-05-05T08:51:19.905Z,101177.88
2023-05-05T08:54:02.039Z,101170.66
2023-05-05T08:56:35.012Z,101171.81
2023-05-05T08:59:03.184Z,101163.16
2023-05-05T09:01:31.860Z,101182.94
2023-05-05T09:03:59.486Z,101199.34
2023-05-05T09:06:27.306Z,101204.16
2023-05-05T09:08:54.446Z,101209.78
2023-05-05T09:11:22.549Z,101199.78
2023-05-05T09:13:49.634Z,101199.03
2023-05-05T09:16:16.275Z,101206.00
2023-05-05T09:18:43.006Z,101213.63
2023-05-05T09:21:26.388Z,101227.50
2023-05-05T09:24:09.632Z,101229.75
2023-05-05T09:26:38.733Z,101241.34
2023-05-05T09:29:06.028Z,101246.44
2023-05-05T09:31:33.977Z,101248.22
2023-05-05T09:34:01.178Z,101233.50
2023-05-05T09:36:47.336Z,101223.75
2023-05-05T09:39:17.933Z,101228.50
2023-05-05T09:41:45.369Z,101246.13
2023-05-05T09:44:13.094Z,101234.44
2023-05-05T09:46:50.994Z,101235.66
2023-05-05T09:49:20.079Z,101230.84
2023-05-05T09:51:47.480Z,101222.03
2023-05-05T09:54:22.932Z,101215.28
2023-05-05T09:56:50.681Z,101206.97
2023-05-05T09:59:17.059Z,101202.50
2023-05-05T10:01:44.038Z,101200.16
2023-05-05T10:04:28.497Z,101187.66
2023-05-05T10:06:57.234Z,101182.16
2023-05-05T10:09:27.512Z,101178.91
2023-05-05T10:11:57.044Z,101182.38
2023-05-05T10:14:52.415Z,101175.25
2023-05-05T10:17:22.257Z,101180.31
2023-05-05T10:19:52.144Z,101183.47
2023-05-05T10:22:22.781Z,101177.28
2023-05-05T10:25:11.829Z,101171.47
2023-05-05T10:27:44.120Z,101182.19
2023-05-05T10:30:34.244Z,101179.22
2023-05-05T10:35:41.676Z,101185.53
2023-05-05T10:38:12.849Z,101207.00
2023-05-05T10:40:46.888Z,101219.69
2023-05-05T10:43:14.397Z,101214.00
2023-05-05T10:45:42.974Z,101205.56
2023-05-05T10:48:21.048Z,101190.28
2023-05-05T10:50:53.813Z,101204.97
2023-05-05T10:53:28.000Z,101205.06
2023-05-05T10:56:06.865Z,101191.09
2023-05-05T10:58:55.394Z,101193.41
2023-05-05T11:01:33.151Z,101188.84
2023-05-05T11:04:23.325Z,101190.78
2023-05-05T11:07:08.007Z,101177.09
2023-05-05T11:09:42.079Z,101172.72
2023-05-05T11:12:09.108Z,101171.50
2023-05-05T11:14:35.692Z,101168.31
2023-05-05T11:17:04.081Z,101169.25
2023-05-05T11:19:42.708Z,101175.63
2023-05-05T11:22:10.603Z,101162.34
2023-05-05T11:24:39.553Z,101162.56
2023-05-05T11:27:06.556Z,101165.81
2023-05-05T11:30:08.061Z,101165.47
2023-05-05T11:32:34.884Z,101159.97
2023-05-05T11:35:03.776Z,101162.56
2023-05-05T11:37:30.297Z,101164.66
2023-05-05T11:40:22.026Z,101158.63
2023-05-05T11:42:48.477Z,101159.63
2023-05-05T11:45:22.919Z,101161.59
2023-05-05T11:47:49.781Z,101159.47
2023-05-05T11:50:18.749Z,101157.84
2023-05-05T11:52:45.662Z,101154.78
2023-05-05T11:55:12.161Z,101150.88
2023-05-05T11:57:38.674Z,101151.69
2023-05-05T12:00:10.401Z,101155.91
2023-05-05T12:02:37.248Z,101157.94
2023-05-05T12:05:04.079Z,101161.84
2023-05-05T12:07:32.301Z,101157.75
2023-05-05T12:09:59.471Z,101150.53
2023-05-05T12:12:36.583Z,101145.34
2023-05-05T12:15:03.793Z,101145.97
2023-05-05T12:17:45.760Z,101135.66
2023-05-05T12:20:13.312Z,101144.38
2023-05-05T12:22:40.299Z,101143.91
2023-05-05T12:25:08.185Z,101139.84
2023-05-05T12:27:38.449Z,101139.47
2023-05-05T12:30:16.580Z,101135.88
2023-05-05T12:32:44.369Z,101139.41
2023-05-05T12:35:12.109Z,101136.16
2023-05-05T12:37:38.886Z,101133.44
2023-05-05T12:40:06.477Z,101130.69
2023-05-05T12:42:38.732Z,101129.84
2023-05-05T12:45:05.744Z,101129.72
2023-05-05T12:47:33.278Z,101125.81
2023-05-05T12:50:00.636Z,101127.56
2023-05-05T12:52:40.730Z,101129.19
2023-05-05T12:55:07.957Z,101123.84
2023-05-05T12:57:34.679Z,101122.22
2023-05-05T13:00:13.558Z,101125.31
2023-05-05T13:02:40.070Z,101112.84
2023-05-05T13:05:07.157Z,101126.19
2023-05-05T13:07:33.696Z,101114.13
2023-05-05T13:10:09.087Z,101108.41
2023-05-05T13:12:35.585Z,101100.38
2023-05-05T13:15:03.980Z,101090.22
2023-05-05T13:17:31.467Z,101094.72
2023-05-05T13:19:59.226Z,101081.19
2023-05-05T13:22:25.595Z,101079.63
2023-05-05T13:24:52.956Z,101073.38
2023-05-05T13:27:19.974Z,101075.44
2023-05-05T13:29:46.688Z,101079.75
2023-05-05T13:32:13.247Z,101074.13
2023-05-05T13:34:39.724Z,101066.28
2023-05-05T13:37:06.267Z,101068.59
2023-05-05T13:39:32.720Z,101071.19
2023-05-05T13:41:59.139Z,101057.19
2023-05-05T13:44:25.594Z,101056.88
2023-05-05T13:46:52.008Z,101044.84
2023-05-05T13:49:18.586Z,101039.78
2023-05-05T13:51:46.753Z,101043.03
2023-05-05T13:54:13.477Z,101037.88
2023-05-05T13:56:39.901Z,101031.09
2023-05-05T13:59:06.378Z,101034.63
2023-05-05T14:01:33.029Z,101027.63
2023-05-05T14:03:59.777Z,101027.09
2023-05-05T14:06:27.739Z,101020.63
2023-05-05T14:08:54.143Z,101008.97
2023-05-05T14:11:20.969Z,101010.91
2023-05-05T14:13:47.956Z,101005.19
2023-05-05T14:16:14.580Z,100997.84
2023-05-05T14:18:41.072Z,101007.50
2023-05-05T14:21:07.513Z,100998.19
2023-05-05T14:23:34.021Z,100994.41
2023-05-05T14:26:01.052Z,100998.72
2023-05-05T14:28:27.497Z,100988.25
2023-05-05T14:30:53.939Z,100990.28
2023-05-05T14:33:20.416Z,100975.91
2023-05-05T14:35:47.079Z,100975.91
2023-05-05T14:38:13.614Z,100964.25
2023-05-05T14:40:39.995Z,100963.97
2023-05-05T14:43:06.594Z,100985.50
2023-05-05T14:45:33.285Z,100987.53
2023-05-05T14:47:59.735Z,100993.38
2023-05-05T14:50:26.219Z,100996.19
2023-05-05T14:52:52.662Z,100996.19
2023-05-05T14:55:19.262Z,100998.63
2023-05-05T14:57:45.821Z,100992.31
2023-05-05T15:00:13.291Z,100982.44
2023-05-05T15:02:39.860Z,100981.00
2023-05-05T15:05:07.276Z,100993.81
2023-05-05T15:07:33.850Z,100995.09
2023-05-05T15:10:00.308Z,100991.06
2023-05-05T15:12:27.866Z,100993.19
2023-05-05T15:14:55.398Z,100982.81
2023-05-05T15:17:21.946Z,100989.78
2023-05-05T15:19:48.433Z,100988.63
2023-05-05T15:22:15.006Z,100997.03
2023-05-05T15:24:41.459Z,100989.09
2023-05-05T15:27:08.194Z,100984.25
2023-05-05T15:29:34.641Z,100987.00
2023-05-05T15:32:01.950Z,100972.91
2023-05-05T15:34:28.412Z,100980.97
2023-05-05T15:36:55.174Z,100987.09
2023-05-05T15:39:21.548Z,100991.63
2023-05-05T15:41:48.012Z,100988.63
2023-05-05T15:44:14.576Z,100998.66
2023-05-05T15:46:41.120Z,101006.28
2023-05-05T15:49:07.639Z,101013.38
2023-05-05T15:51:34.102Z,101021.78
2023-05-05T15:54:00.571Z,101030.00
2023-05-05T15:56:27.497Z,101036.09
2023-05-05T15:58:54.317Z,101046.06
2023-05-05T16:01:20.979Z,101048.63
2023-05-05T16:03:47.481Z,101060.06
2023-05-05T16:06:14.413Z,101067.47
2023-05-05T16:08:42.282Z,101072.13
2023-05-05T16:11:09.484Z,101083.94
2023-05-05T16:13:35.876Z,101104.75
2023-05-05T16:16:03.588Z,101108.78
2023-05-05T16:18:30.034Z,101115.59
2023-05-05T16:20:56.398Z,101115.13
2023-05-05T16:23:22.892Z,101115.91
2023-05-05T16:25:49.365Z,101115.78
2023-05-05T16:28:15.897Z,101113.03
2023-05-05T16:30:43.219Z,101111.44
2023-05-05T16:33:10.023Z,101098.91
2023-05-05T16:35:36.606Z,101103.00
2023-05-05T16:38:03.577Z,101113.09
2023-05-05T16:40:30.065Z,101105.53
2023-05-05T16:42:59.234Z,101109.94
2023-05-05T16:45:25.657Z,101101.97
2023-05-05T16:47:52.736Z,101105.59
2023-05-05T16:50:19.343Z,101102.69
2023-05-05T16:52:45.935Z,101097.31
2023-05-05T16:55:12.763Z,101091.63
2023-05-05T16:57:39.228Z,101095.38
2023-05-05T17:00:06.853Z,101098.44
2023-05-05T17:04:59.808Z,101107.53
2023-05-05T17:07:26.322Z,101108.06
2023-05-05T17:09:52.715Z,101100.16
2023-05-05T17:12:19.180Z,101102.88
2023-05-05T17:14:45.995Z,101091.97
2023-05-05T17:17:12.930Z,101094.41
2023-05-05T17:19:39.499Z,101095.75
2023-05-05T17:22:06.020Z,101098.03
2023-05-05T17:24:32.493Z,101095.53
2023-05-05T17:27:00.054Z,101091.41
2023-05-05T17:29:27.758Z,101086.78
2023-05-05T17:31:55.216Z,101084.59
2023-05-05T17:34:21.954Z,101085.13
2023-05-05T17:36:48.369Z,101083.78
2023-05-05T17:39:14.986Z,101085.13
2023-05-05T17:41:42.398Z,101073.13
2023-05-05T17:44:08.800Z,101086.22
2023-05-05T17:46:35.366Z,101090.59
2023-05-05T17:49:02.699Z,101078.25
2023-05-05T17:51:29.146Z,101082.91
2023-05-05T17:53:55.670Z,101085.06
2023-05-05T17:56:22.255Z,101088.84
2023-05-05T17:58:48.944Z,101073.00
2023-05-05T18:01:26.318Z,101079.84
2023-05-05T18:03:52.885Z,101080.63
2023-05-05T18:06:19.485Z,101090.44
2023-05-05T18:08:46.571Z,101092.09
2023-05-05T18:11:13.252Z,101083.94
2023-05-05T18:13:39.877Z,101087.47
2023-05-05T18:16:06.744Z,101091.84
2023-05-05T18:18:33.312Z,101089.44
2023-05-05T18:20:59.927Z,101091.63
2023-05-05T18:23:26.645Z,101088.91
2023-05-05T18:25:53.100Z,101108.63
2023-05-05T18:28:20.262Z,101096.81
2023-05-05T18:30:46.727Z,101107.50
2023-05-05T18:33:13.508Z,101111.25
2023-05-05T18:35:39.976Z,101112.91
2023-05-05T18:38:06.482Z,101119.28
2023-05-05T18:40:32.950Z,101118.19
2023-05-05T18:42:59.479Z,101114.06
2023-05-05T18:45:25.917Z,101115.72
2023-05-05T18:47:52.412Z,101116.25
2023-05-05T18:50:18.998Z,101124.47
2023-05-05T18:52:45.714Z,101137.59
2023-05-05T18:55:12.632Z,101140.31
2023-05-05T18:57:39.172Z,101146.88
2023-05-05T19:00:06.735Z,101143.56
2023-05-05T19:02:33.266Z,101141.66
2023-05-05T19:04:59.803Z,101141.91
2023-05-05T19:07:35.101Z,101143.53
2023-05-05T19:10:04.382Z,101146.53
2023-05-05T19:12:30.819Z,101147.06
2023-05-05T19:14:57.630Z,101141.88
2023-05-05T19:17:25.048Z,101150.31
2023-05-05T19:19:51.555Z,101152.75
2023-05-05T19:22:18.082Z,101138.06
2023-05-05T19:24:44.841Z,101146.78
2023-05-05T19:27:16.201Z,101141.59
2023-05-05T19:29:43.621Z,101149.25
2023-05-05T19:32:10.144Z,101151.41
2023-05-05T19:34:36.932Z,101145.94
2023-05-05T19:37:03.346Z,101141.13
2023-05-05T19:39:29.782Z,101152.59
2023-05-05T19:41:56.473Z,101149.03
2023-05-05T19:44:23.237Z,101145.50
2023-05-05T19:46:49.998Z,101150.16
2023-05-05T19:49:16.454Z,101156.41
2023-05-05T19:51:43.745Z,101160.50
2023-05-05T19:54:10.299Z,101160.50
2023-05-05T19:56:36.749Z,101153.94
2023-05-05T19:59:05.225Z,101145.22
2023-05-05T20:01:33.028Z,101156.41
2023-05-05T20:03:59.863Z,101146.31
2023-05-05T20:06:26.898Z,101146.84
2023-05-05T20:08:54.690Z,101154.22
2023-05-05T20:11:21.438Z,101144.69
2023-05-05T20:13:49.121Z,101146.03
2023-05-05T20:16:15.904Z,101141.72
2023-05-05T20:18:42.448Z,101145.81
2023-05-05T20:21:08.865Z,101147.47
2023-05-05T20:23:36.519Z,101151.81
2023-05-05T20:26:03.048Z,101136.25
2023-05-05T20:28:31.655Z,101129.13
2023-05-05T20:30:58.229Z,101136.22
2023-05-05T20:33:24.715Z,101128.06
2023-05-05T20:35:51.115Z,101126.47
2023-05-05T20:38:17.888Z,101124.25
2023-05-05T20:40:44.505Z,101107.88
2023-05-05T20:43:11.222Z,101107.84
2023-05-05T20:45:37.808Z,101108.19
2023-05-05T20:48:05.072Z,101103.63
2023-05-05T20:50:31.743Z,101094.34
2023-05-05T20:52:58.716Z,101099.00
2023-05-05T20:55:25.639Z,101106.63
2023-05-05T20:57:52.032Z,101110.19
2023-05-05T21:00:18.533Z,101114.28
2023-05-05T21:02:45.236Z,101108.84
2023-05-05T21:05:11.793Z,101109.06
2023-05-05T21:07:38.552Z,101107.19
2023-05-05T21:10:05.712Z,101110.19
2023-05-05T21:12:33.863Z,101108.03
2023-05-05T21:15:00.671Z,101108.31
2023-05-05T21:17:29.618Z,101099.88
2023-05-05T21:19:56.947Z,101099.91
2023-05-05T21:22:23.642Z,101095.53
2023-05-05T21:24:50.753Z,101091.44
2023-05-05T21:27:17.731Z,101088.72
2023-05-05T21:29:44.242Z,101088.41
2023-05-05T21:32:11.679Z,101078.88
2023-05-05T21:34:39.072Z,101090.88
2023-05-05T21:37:06.087Z,101086.00
2023-05-05T21:39:33.164Z,101083.81
2023-05-05T21:42:01.046Z,101085.19
2023-05-05T21:44:28.151Z,101086.00
2023-05-05T21:46:55.378Z,101084.63
2023-05-05T21:49:21.861Z,101083.84
2023-05-05T21:51:48.308Z,101091.47
2023-05-05T21:54:14.878Z,101084.16
2023-05-05T21:56:41.259Z,101083.63
2023-05-05T21:59:07.700Z,101092.66
2023-05-05T22:01:34.149Z,101096.22
2023-05-05T22:04:00.687Z,101092.69
2023-05-05T22:06:27.229Z,101089.75
2023-05-05T22:08:53.647Z,101094.94
2023-05-05T22:11:20.338Z,101095.75
2023-05-05T22:14:11.533Z,101106.41
2023-05-05T22:16:38.073Z,101104.22
2023-05-05T22:19:04.554Z,101105.63
2023-05-05T22:21:31.492Z,101103.97
2023-05-05T22:23:57.881Z,101103.97
2023-05-05T22:26:24.343Z,101105.06
2023-05-05T22:28:51.014Z,101108.13
2023-05-05T22:31:17.698Z,101105.41
2023-05-05T22:33:44.151Z,101107.03
2023-05-05T22:36:11.498Z,101106.50
2023-05-05T22:38:37.924Z,101107.84
2023-05-05T22:41:06.362Z,101114.69
2023-05-05T22:43:32.826Z,101114.94
2023-05-05T22:45:59.210Z,101108.69
2023-05-05T22:48:26.210Z,101106.25
2023-05-05T22:50:52.625Z,101102.41
2023-05-05T22:53:19.132Z,101109.75
2023-05-05T22:55:45.899Z,101097.22
2023-05-05T22:58:12.447Z,101109.78
2023-05-05T23:00:38.836Z,101111.97
2023-05-05T23:03:05.332Z,101107.56
2023-05-05T23:05:31.920Z,101116.09
2023-05-05T23:08:01.021Z,101118.28
2023-05-05T23:10:28.911Z,101120.75
2023-05-05T23:12:55.600Z,101123.47
2023-05-05T23:15:22.692Z,101121.00
2023-05-05T23:17:49.260Z,101128.38
2023-05-05T23:20:16.236Z,101112.00
2023-05-05T23:22:42.696Z,101114.72
2023-05-05T23:25:09.430Z,101122.06
2023-05-05T23:27:38.982Z,101119.63
2023-05-05T23:30:07.300Z,101116.63
2023-05-05T23:32:33.864Z,101118.50
2023-05-05T23:35:00.294Z,101125.06
2023-05-05T23:37:27.877Z,101125.59
2023-05-05T23:39:54.454Z,101124.78
2023-05-05T23:42:21.051Z,101139.25
2023-05-05T23:44:47.759Z,101138.72
2023-05-05T23:47:14.183Z,101135.41
2023-05-05T23:49:40.657Z,101142.78
2023-05-05T23:52:07.067Z,101139.78
2023-05-05T23:54:33.480Z,101138.44
2023-05-05T23:57:00.237Z,101139.78
2023-05-05T23:59:27.178Z,101138.19
